sensor_id;sensor_type;location;lat;lon;timestamp;noise_LAeq;noise_LA_min;noise_LA_max;noise_LA01;noise_LA95
67322;Laerm;57666;51.436;5.978;2022-07-29T00:00:07;44.17;41.01;51.03;;
67322;Laerm;57666;51.436;5.978;2022-07-29T00:00:18;43.83;41.63;48.23;;
67322;Laerm;57666;51.436;5.978;2022-07-29T00:00:29;43.95;42.12;45.92;;
67322;Laerm;57666;51.436;5.978;2022-07-29T00:00:39;43.00;41.16;44.76;;
67322;Laerm;57666;51.436;5.978;2022-07-29T00:00:49;42.93;40.91;45.55;;
67322;Laerm;57666;51.436;5.978;2022-07-29T00:01:00;43.53;41.27;45.70;;
67322;Laerm;57666;51.436;5.978;2022-07-29T00:01:13;44.87;41.46;50.74;;
67322;Laerm;57666;51.436;5.978;2022-07-29T00:01:24;43.21;40.71;49.61;;
67322;Laerm;57666;51.436;5.978;2022-07-29T00:01:34;43.62;40.65;47.05;;
67322;Laerm;57666;51.436;5.978;2022-07-29T00:01:44;60.81;44.99;68.90;;
67322;Laerm;57666;51.436;5.978;2022-07-29T00:01:55;52.00;41.86;61.33;;
67322;Laerm;57666;51.436;5.978;2022-07-29T00:02:05;43.51;41.70;46.08;;
67322;Laerm;57666;51.436;5.978;2022-07-29T00:02:15;43.21;41.46;44.96;;
67322;Laerm;57666;51.436;5.978;2022-07-29T00:02:26;44.55;42.14;48.97;;
67322;Laerm;57666;51.436;5.978;2022-07-29T00:02:36;43.71;41.37;46.92;;
67322;Laerm;57666;51.436;5.978;2022-07-29T00:02:47;43.85;41.00;46.75;;
67322;Laerm;57666;51.436;5.978;2022-07-29T00:02:57;43.42;41.20;45.51;;
67322;Laerm;57666;51.436;5.978;2022-07-29T00:03:07;43.59;41.65;46.72;;
67322;Laerm;57666;51.436;5.978;2022-07-29T00:03:18;46.93;41.19;56.53;;
67322;Laerm;57666;51.436;5.978;2022-07-29T00:03:28;52.16;43.25;62.14;;
67322;Laerm;57666;51.436;5.978;2022-07-29T00:03:39;43.00;40.50;46.28;;
67322;Laerm;57666;51.436;5.978;2022-07-29T00:03:49;42.87;40.70;45.39;;
67322;Laerm;57666;51.436;5.978;2022-07-29T00:03:59;43.50;41.10;46.57;;
67322;Laerm;57666;51.436;5.978;2022-07-29T00:04:10;43.58;41.18;46.28;;
67322;Laerm;57666;51.436;5.978;2022-07-29T00:04:20;43.45;41.44;46.63;;
67322;Laerm;57666;51.436;5.978;2022-07-29T00:04:34;43.44;40.92;49.69;;
67322;Laerm;57666;51.436;5.978;2022-07-29T00:04:44;43.14;40.86;45.89;;
67322;Laerm;57666;51.436;5.978;2022-07-29T00:04:55;42.90;41.19;44.94;;
67322;Laerm;57666;51.436;5.978;2022-07-29T00:05:05;43.08;41.50;44.68;;
67322;Laerm;57666;51.436;5.978;2022-07-29T00:05:16;43.37;41.33;45.38;;
67322;Laerm;57666;51.436;5.978;2022-07-29T00:05:26;43.00;40.90;45.07;;
67322;Laerm;57666;51.436;5.978;2022-07-29T00:05:40;43.33;41.16;45.18;;
67322;Laerm;57666;51.436;5.978;2022-07-29T00:05:50;43.17;41.31;45.07;;
67322;Laerm;57666;51.436;5.978;2022-07-29T00:06:03;43.44;41.73;45.56;;
67322;Laerm;57666;51.436;5.978;2022-07-29T00:06:13;42.92;41.45;44.28;;
67322;Laerm;57666;51.436;5.978;2022-07-29T00:06:24;43.27;40.79;44.70;;
67322;Laerm;57666;51.436;5.978;2022-07-29T00:06:34;43.17;41.60;44.87;;
67322;Laerm;57666;51.436;5.978;2022-07-29T00:06:44;43.46;41.37;45.37;;
67322;Laerm;57666;51.436;5.978;2022-07-29T00:06:55;43.23;41.48;45.48;;
67322;Laerm;57666;51.436;5.978;2022-07-29T00:07:05;43.24;41.14;45.15;;
67322;Laerm;57666;51.436;5.978;2022-07-29T00:07:15;43.39;41.56;45.12;;
67322;Laerm;57666;51.436;5.978;2022-07-29T00:07:26;43.79;42.11;45.84;;
67322;Laerm;57666;51.436;5.978;2022-07-29T00:07:36;43.22;41.70;45.10;;
67322;Laerm;57666;51.436;5.978;2022-07-29T00:07:46;43.01;40.91;44.91;;
67322;Laerm;57666;51.436;5.978;2022-07-29T00:07:57;42.94;40.98;44.70;;
67322;Laerm;57666;51.436;5.978;2022-07-29T00:08:07;43.97;41.81;45.78;;
67322;Laerm;57666;51.436;5.978;2022-07-29T00:08:18;43.38;41.70;45.01;;
67322;Laerm;57666;51.436;5.978;2022-07-29T00:08:28;43.35;41.30;45.30;;
67322;Laerm;57666;51.436;5.978;2022-07-29T00:08:38;43.26;41.00;45.52;;
67322;Laerm;57666;51.436;5.978;2022-07-29T00:08:49;43.07;41.33;44.90;;
67322;Laerm;57666;51.436;5.978;2022-07-29T00:08:59;42.93;41.36;44.89;;
67322;Laerm;57666;51.436;5.978;2022-07-29T00:09:09;42.93;41.20;44.71;;
67322;Laerm;57666;51.436;5.978;2022-07-29T00:09:20;42.74;40.68;44.95;;
67322;Laerm;57666;51.436;5.978;2022-07-29T00:09:31;42.77;40.72;45.63;;
67322;Laerm;57666;51.436;5.978;2022-07-29T00:09:41;42.97;40.97;45.16;;
67322;Laerm;57666;51.436;5.978;2022-07-29T00:09:51;42.66;41.03;44.40;;
67322;Laerm;57666;51.436;5.978;2022-07-29T00:10:02;42.62;40.05;45.01;;
67322;Laerm;57666;51.436;5.978;2022-07-29T00:10:12;42.82;41.07;44.55;;
67322;Laerm;57666;51.436;5.978;2022-07-29T00:10:23;43.26;41.30;45.25;;
67322;Laerm;57666;51.436;5.978;2022-07-29T00:10:33;43.81;41.89;45.88;;
67322;Laerm;57666;51.436;5.978;2022-07-29T00:10:43;43.38;41.66;45.89;;
67322;Laerm;57666;51.436;5.978;2022-07-29T00:10:54;43.11;41.49;44.91;;
67322;Laerm;57666;51.436;5.978;2022-07-29T00:11:04;43.43;41.67;44.85;;
67322;Laerm;57666;51.436;5.978;2022-07-29T00:11:14;43.12;41.51;45.01;;
67322;Laerm;57666;51.436;5.978;2022-07-29T00:11:25;43.59;40.88;50.48;;
67322;Laerm;57666;51.436;5.978;2022-07-29T00:11:38;43.00;41.01;45.21;;
67322;Laerm;57666;51.436;5.978;2022-07-29T00:11:49;42.73;41.22;44.55;;
67322;Laerm;57666;51.436;5.978;2022-07-29T00:11:59;43.01;41.13;44.81;;
67322;Laerm;57666;51.436;5.978;2022-07-29T00:12:10;43.12;40.93;44.86;;
67322;Laerm;57666;51.436;5.978;2022-07-29T00:12:21;43.08;41.17;44.92;;
67322;Laerm;57666;51.436;5.978;2022-07-29T00:12:32;43.03;41.54;45.19;;
67322;Laerm;57666;51.436;5.978;2022-07-29T00:12:42;42.97;41.23;44.83;;
67322;Laerm;57666;51.436;5.978;2022-07-29T00:12:52;44.11;41.48;49.64;;
67322;Laerm;57666;51.436;5.978;2022-07-29T00:13:03;44.25;41.52;47.44;;
67322;Laerm;57666;51.436;5.978;2022-07-29T00:13:13;42.82;41.09;44.63;;
67322;Laerm;57666;51.436;5.978;2022-07-29T00:13:23;42.97;41.07;44.48;;
67322;Laerm;57666;51.436;5.978;2022-07-29T00:13:34;42.91;41.12;44.56;;
67322;Laerm;57666;51.436;5.978;2022-07-29T00:13:44;42.66;41.32;44.05;;
67322;Laerm;57666;51.436;5.978;2022-07-29T00:13:54;42.71;40.81;44.57;;
67322;Laerm;57666;51.436;5.978;2022-07-29T00:14:05;42.58;41.02;44.85;;
67322;Laerm;57666;51.436;5.978;2022-07-29T00:14:15;43.05;41.28;45.77;;
67322;Laerm;57666;51.436;5.978;2022-07-29T00:14:25;42.98;41.29;46.04;;
67322;Laerm;57666;51.436;5.978;2022-07-29T00:14:36;42.82;41.15;44.79;;
67322;Laerm;57666;51.436;5.978;2022-07-29T00:14:46;42.78;41.14;45.99;;
67322;Laerm;57666;51.436;5.978;2022-07-29T00:14:56;42.84;40.97;45.52;;
67322;Laerm;57666;51.436;5.978;2022-07-29T00:15:07;42.81;40.78;44.62;;
67322;Laerm;57666;51.436;5.978;2022-07-29T00:15:18;42.53;40.65;44.48;;
67322;Laerm;57666;51.436;5.978;2022-07-29T00:15:28;42.78;40.69;44.33;;
67322;Laerm;57666;51.436;5.978;2022-07-29T00:15:38;42.85;41.37;44.83;;
67322;Laerm;57666;51.436;5.978;2022-07-29T00:15:48;42.57;40.59;44.57;;
67322;Laerm;57666;51.436;5.978;2022-07-29T00:15:59;42.33;40.49;43.90;;
67322;Laerm;57666;51.436;5.978;2022-07-29T00:16:09;42.39;40.78;44.91;;
67322;Laerm;57666;51.436;5.978;2022-07-29T00:16:20;42.42;40.72;44.22;;
67322;Laerm;57666;51.436;5.978;2022-07-29T00:16:30;42.55;40.76;48.81;;
67322;Laerm;57666;51.436;5.978;2022-07-29T00:16:40;42.49;40.78;44.74;;
67322;Laerm;57666;51.436;5.978;2022-07-29T00:16:51;42.65;40.80;46.32;;
67322;Laerm;57666;51.436;5.978;2022-07-29T00:17:01;44.72;41.07;55.45;;
67322;Laerm;57666;51.436;5.978;2022-07-29T00:17:12;46.00;40.76;56.90;;
67322;Laerm;57666;51.436;5.978;2022-07-29T00:17:23;45.41;40.95;58.13;;
67322;Laerm;57666;51.436;5.978;2022-07-29T00:17:33;43.01;40.36;50.05;;
67322;Laerm;57666;51.436;5.978;2022-07-29T00:17:44;42.44;40.85;44.41;;
67322;Laerm;57666;51.436;5.978;2022-07-29T00:17:54;42.06;40.17;43.62;;
67322;Laerm;57666;51.436;5.978;2022-07-29T00:18:04;42.36;40.85;44.09;;
67322;Laerm;57666;51.436;5.978;2022-07-29T00:18:15;42.38;40.01;44.54;;
67322;Laerm;57666;51.436;5.978;2022-07-29T00:18:25;42.38;40.75;43.99;;
67322;Laerm;57666;51.436;5.978;2022-07-29T00:18:35;41.97;40.14;43.66;;
67322;Laerm;57666;51.436;5.978;2022-07-29T00:18:45;42.40;40.22;46.17;;
67322;Laerm;57666;51.436;5.978;2022-07-29T00:18:56;43.38;40.90;59.05;;
67322;Laerm;57666;51.436;5.978;2022-07-29T00:19:06;42.55;40.88;47.38;;
67322;Laerm;57666;51.436;5.978;2022-07-29T00:19:16;42.46;40.76;46.35;;
67322;Laerm;57666;51.436;5.978;2022-07-29T00:19:27;42.23;40.21;48.88;;
67322;Laerm;57666;51.436;5.978;2022-07-29T00:19:37;42.09;39.78;44.87;;
67322;Laerm;57666;51.436;5.978;2022-07-29T00:19:48;42.34;40.37;50.92;;
67322;Laerm;57666;51.436;5.978;2022-07-29T00:19:58;42.19;40.81;44.85;;
67322;Laerm;57666;51.436;5.978;2022-07-29T00:20:08;41.92;40.52;43.73;;
67322;Laerm;57666;51.436;5.978;2022-07-29T00:20:19;42.11;40.52;43.83;;
67322;Laerm;57666;51.436;5.978;2022-07-29T00:20:29;41.99;40.11;43.81;;
67322;Laerm;57666;51.436;5.978;2022-07-29T00:20:40;41.64;40.01;44.21;;
67322;Laerm;57666;51.436;5.978;2022-07-29T00:20:50;41.76;39.93;43.43;;
67322;Laerm;57666;51.436;5.978;2022-07-29T00:21:00;42.18;40.33;44.15;;
67322;Laerm;57666;51.436;5.978;2022-07-29T00:21:10;42.34;40.16;44.57;;
67322;Laerm;57666;51.436;5.978;2022-07-29T00:21:21;42.17;40.49;45.14;;
67322;Laerm;57666;51.436;5.978;2022-07-29T00:21:31;42.05;40.29;43.99;;
67322;Laerm;57666;51.436;5.978;2022-07-29T00:21:41;42.26;40.57;44.56;;
67322;Laerm;57666;51.436;5.978;2022-07-29T00:21:52;42.11;40.33;43.79;;
67322;Laerm;57666;51.436;5.978;2022-07-29T00:22:02;42.02;40.53;43.82;;
67322;Laerm;57666;51.436;5.978;2022-07-29T00:22:13;42.29;40.53;43.63;;
67322;Laerm;57666;51.436;5.978;2022-07-29T00:22:23;42.24;40.63;43.98;;
67322;Laerm;57666;51.436;5.978;2022-07-29T00:22:36;41.99;40.07;43.39;;
67322;Laerm;57666;51.436;5.978;2022-07-29T00:22:46;42.02;40.64;43.83;;
67322;Laerm;57666;51.436;5.978;2022-07-29T00:22:57;42.42;40.48;44.28;;
67322;Laerm;57666;51.436;5.978;2022-07-29T00:23:07;42.29;40.73;44.05;;
67322;Laerm;57666;51.436;5.978;2022-07-29T00:23:17;42.00;40.49;43.60;;
67322;Laerm;57666;51.436;5.978;2022-07-29T00:23:28;41.60;39.92;43.42;;
67322;Laerm;57666;51.436;5.978;2022-07-29T00:23:38;41.78;40.45;44.90;;
67322;Laerm;57666;51.436;5.978;2022-07-29T00:23:48;42.43;40.73;43.90;;
67322;Laerm;57666;51.436;5.978;2022-07-29T00:23:58;42.48;40.72;43.95;;
67322;Laerm;57666;51.436;5.978;2022-07-29T00:24:09;42.23;40.54;43.87;;
67322;Laerm;57666;51.436;5.978;2022-07-29T00:24:19;42.05;40.61;43.71;;
67322;Laerm;57666;51.436;5.978;2022-07-29T00:24:30;42.31;40.66;43.89;;
67322;Laerm;57666;51.436;5.978;2022-07-29T00:24:40;42.11;40.10;43.90;;
67322;Laerm;57666;51.436;5.978;2022-07-29T00:24:50;42.11;40.69;45.10;;
67322;Laerm;57666;51.436;5.978;2022-07-29T00:25:01;42.18;40.72;43.29;;
67322;Laerm;57666;51.436;5.978;2022-07-29T00:25:11;42.23;40.32;44.06;;
67322;Laerm;57666;51.436;5.978;2022-07-29T00:25:22;42.11;40.62;44.38;;
67322;Laerm;57666;51.436;5.978;2022-07-29T00:25:32;41.96;40.49;43.36;;
67322;Laerm;57666;51.436;5.978;2022-07-29T00:25:42;42.23;40.75;44.04;;
67322;Laerm;57666;51.436;5.978;2022-07-29T00:25:52;42.35;40.89;44.02;;
67322;Laerm;57666;51.436;5.978;2022-07-29T00:26:03;42.25;40.52;44.37;;
67322;Laerm;57666;51.436;5.978;2022-07-29T00:26:13;42.55;40.55;44.27;;
67322;Laerm;57666;51.436;5.978;2022-07-29T00:26:23;42.70;40.73;44.88;;
67322;Laerm;57666;51.436;5.978;2022-07-29T00:26:34;42.31;40.84;44.40;;
67322;Laerm;57666;51.436;5.978;2022-07-29T00:26:44;42.03;40.51;43.65;;
67322;Laerm;57666;51.436;5.978;2022-07-29T00:26:54;42.21;40.52;44.91;;
67322;Laerm;57666;51.436;5.978;2022-07-29T00:27:04;42.45;40.56;44.27;;
67322;Laerm;57666;51.436;5.978;2022-07-29T00:27:15;42.24;39.85;44.07;;
67322;Laerm;57666;51.436;5.978;2022-07-29T00:27:25;41.98;40.39;43.72;;
67322;Laerm;57666;51.436;5.978;2022-07-29T00:27:36;42.22;40.24;43.68;;
67322;Laerm;57666;51.436;5.978;2022-07-29T00:27:46;42.38;40.88;43.77;;
67322;Laerm;57666;51.436;5.978;2022-07-29T00:27:56;42.81;41.29;46.61;;
67322;Laerm;57666;51.436;5.978;2022-07-29T00:28:07;43.61;41.51;48.42;;
67322;Laerm;57666;51.436;5.978;2022-07-29T00:28:17;49.48;43.19;57.76;;
67322;Laerm;57666;51.436;5.978;2022-07-29T00:28:27;50.63;46.91;54.98;;
67322;Laerm;57666;51.436;5.978;2022-07-29T00:28:38;50.40;47.38;54.40;;
67322;Laerm;57666;51.436;5.978;2022-07-29T00:28:48;51.71;48.54;57.31;;
67322;Laerm;57666;51.436;5.978;2022-07-29T00:28:59;54.84;50.27;59.75;;
67322;Laerm;57666;51.436;5.978;2022-07-29T00:29:09;58.55;55.23;61.66;;
67322;Laerm;57666;51.436;5.978;2022-07-29T00:29:19;61.59;58.41;64.97;;
67322;Laerm;57666;51.436;5.978;2022-07-29T00:29:30;59.98;56.49;63.79;;
67322;Laerm;57666;51.436;5.978;2022-07-29T00:29:40;58.42;55.73;60.67;;
67322;Laerm;57666;51.436;5.978;2022-07-29T00:29:50;56.90;54.86;60.76;;
67322;Laerm;57666;51.436;5.978;2022-07-29T00:30:01;56.73;54.72;58.96;;
67322;Laerm;57666;51.436;5.978;2022-07-29T00:30:11;57.63;55.13;60.48;;
67322;Laerm;57666;51.436;5.978;2022-07-29T00:30:22;60.53;57.81;74.01;;
67322;Laerm;57666;51.436;5.978;2022-07-29T00:30:32;62.66;60.30;64.79;;
67322;Laerm;57666;51.436;5.978;2022-07-29T00:30:42;63.96;60.80;67.63;;
67322;Laerm;57666;51.436;5.978;2022-07-29T00:30:53;60.59;59.01;63.74;;
67322;Laerm;57666;51.436;5.978;2022-07-29T00:31:03;60.75;58.82;62.84;;
67322;Laerm;57666;51.436;5.978;2022-07-29T00:31:13;59.24;57.33;61.28;;
67322;Laerm;57666;51.436;5.978;2022-07-29T00:31:24;57.38;54.82;64.57;;
67322;Laerm;57666;51.436;5.978;2022-07-29T00:31:34;55.52;53.53;68.80;;
67322;Laerm;57666;51.436;5.978;2022-07-29T00:31:44;54.06;52.22;57.19;;
67322;Laerm;57666;51.436;5.978;2022-07-29T00:31:55;53.68;50.39;69.91;;
67322;Laerm;57666;51.436;5.978;2022-07-29T00:32:05;51.06;49.46;53.63;;
67322;Laerm;57666;51.436;5.978;2022-07-29T00:32:15;50.60;49.21;52.86;;
67322;Laerm;57666;51.436;5.978;2022-07-29T00:32:25;50.57;48.94;51.69;;
67322;Laerm;57666;51.436;5.978;2022-07-29T00:32:36;50.53;49.23;51.90;;
67322;Laerm;57666;51.436;5.978;2022-07-29T00:32:46;49.58;48.20;51.28;;
67322;Laerm;57666;51.436;5.978;2022-07-29T00:32:56;48.20;46.33;54.31;;
67322;Laerm;57666;51.436;5.978;2022-07-29T00:33:06;47.02;45.61;48.64;;
67322;Laerm;57666;51.436;5.978;2022-07-29T00:33:17;46.69;45.49;48.21;;
67322;Laerm;57666;51.436;5.978;2022-07-29T00:33:28;46.01;44.20;48.88;;
67322;Laerm;57666;51.436;5.978;2022-07-29T00:33:38;46.23;44.22;54.54;;
67322;Laerm;57666;51.436;5.978;2022-07-29T00:33:48;44.53;42.94;48.44;;
67322;Laerm;57666;51.436;5.978;2022-07-29T00:33:59;44.29;42.89;45.56;;
67322;Laerm;57666;51.436;5.978;2022-07-29T00:34:09;44.36;43.00;45.72;;
67322;Laerm;57666;51.436;5.978;2022-07-29T00:34:39;43.95;41.98;45.67;;
67322;Laerm;57666;51.436;5.978;2022-07-29T00:35:08;43.64;41.62;49.11;;
67322;Laerm;57666;51.436;5.978;2022-07-29T00:35:37;44.76;41.96;54.69;;
67322;Laerm;57666;51.436;5.978;2022-07-29T00:35:54;44.39;42.00;55.93;;
67322;Laerm;57666;51.436;5.978;2022-07-29T00:36:04;47.72;41.41;56.41;;
67322;Laerm;57666;51.436;5.978;2022-07-29T00:36:14;43.06;41.22;45.57;;
67322;Laerm;57666;51.436;5.978;2022-07-29T00:36:25;43.10;41.49;45.87;;
67322;Laerm;57666;51.436;5.978;2022-07-29T00:36:35;42.83;40.99;44.75;;
67322;Laerm;57666;51.436;5.978;2022-07-29T00:36:45;47.04;41.25;58.75;;
67322;Laerm;57666;51.436;5.978;2022-07-29T00:36:56;46.41;42.36;57.93;;
67322;Laerm;57666;51.436;5.978;2022-07-29T00:37:06;45.37;42.40;50.09;;
67322;Laerm;57666;51.436;5.978;2022-07-29T00:37:16;43.18;41.47;44.82;;
67322;Laerm;57666;51.436;5.978;2022-07-29T00:37:26;43.47;41.69;46.19;;
67322;Laerm;57666;51.436;5.978;2022-07-29T00:37:37;43.92;41.64;51.49;;
67322;Laerm;57666;51.436;5.978;2022-07-29T00:37:47;44.32;41.86;50.93;;
67322;Laerm;57666;51.436;5.978;2022-07-29T00:37:57;45.63;42.69;53.41;;
67322;Laerm;57666;51.436;5.978;2022-07-29T00:38:07;43.77;42.23;46.23;;
67322;Laerm;57666;51.436;5.978;2022-07-29T00:38:18;44.56;42.88;46.64;;
67322;Laerm;57666;51.436;5.978;2022-07-29T00:38:28;44.79;42.84;48.44;;
67322;Laerm;57666;51.436;5.978;2022-07-29T00:38:39;43.77;42.01;46.03;;
67322;Laerm;57666;51.436;5.978;2022-07-29T00:38:51;43.80;41.89;50.27;;
67322;Laerm;57666;51.436;5.978;2022-07-29T00:39:01;46.01;42.95;54.64;;
67322;Laerm;57666;51.436;5.978;2022-07-29T00:39:12;43.88;41.90;49.28;;
67322;Laerm;57666;51.436;5.978;2022-07-29T00:39:22;43.95;42.20;46.20;;
67322;Laerm;57666;51.436;5.978;2022-07-29T00:39:32;43.32;41.51;45.47;;
67322;Laerm;57666;51.436;5.978;2022-07-29T00:39:43;43.16;41.09;45.05;;
67322;Laerm;57666;51.436;5.978;2022-07-29T00:39:53;43.05;41.33;44.72;;
67322;Laerm;57666;51.436;5.978;2022-07-29T00:40:04;44.08;41.75;48.84;;
67322;Laerm;57666;51.436;5.978;2022-07-29T00:40:14;44.81;42.37;52.56;;
67322;Laerm;57666;51.436;5.978;2022-07-29T00:40:24;52.82;42.31;64.95;;
67322;Laerm;57666;51.436;5.978;2022-07-29T00:40:34;48.53;42.56;57.85;;
67322;Laerm;57666;51.436;5.978;2022-07-29T00:40:45;51.00;42.22;62.26;;
67322;Laerm;57666;51.436;5.978;2022-07-29T00:40:56;49.03;42.29;61.26;;
67322;Laerm;57666;51.436;5.978;2022-07-29T00:41:06;43.56;42.08;45.19;;
67322;Laerm;57666;51.436;5.978;2022-07-29T00:41:16;46.15;42.01;53.67;;
67322;Laerm;57666;51.436;5.978;2022-07-29T00:41:27;43.44;41.93;45.08;;
67322;Laerm;57666;51.436;5.978;2022-07-29T00:41:37;43.83;42.20;45.81;;
67322;Laerm;57666;51.436;5.978;2022-07-29T00:41:47;43.35;40.89;45.59;;
67322;Laerm;57666;51.436;5.978;2022-07-29T00:41:58;44.42;42.22;46.74;;
67322;Laerm;57666;51.436;5.978;2022-07-29T00:42:08;44.55;41.91;48.06;;
67322;Laerm;57666;51.436;5.978;2022-07-29T00:42:19;44.22;42.37;47.38;;
67322;Laerm;57666;51.436;5.978;2022-07-29T00:42:30;43.77;42.18;45.22;;
67322;Laerm;57666;51.436;5.978;2022-07-29T00:42:46;43.90;41.95;45.53;;
67322;Laerm;57666;51.436;5.978;2022-07-29T00:42:57;44.50;42.14;50.51;;
67322;Laerm;57666;51.436;5.978;2022-07-29T00:43:07;45.06;42.32;51.33;;
67322;Laerm;57666;51.436;5.978;2022-07-29T00:43:18;44.98;42.59;51.94;;
67322;Laerm;57666;51.436;5.978;2022-07-29T00:43:28;45.70;42.66;52.32;;
67322;Laerm;57666;51.436;5.978;2022-07-29T00:43:38;55.78;43.69;65.96;;
67322;Laerm;57666;51.436;5.978;2022-07-29T00:43:49;47.92;43.15;57.78;;
67322;Laerm;57666;51.436;5.978;2022-07-29T00:43:59;44.99;42.43;52.50;;
67322;Laerm;57666;51.436;5.978;2022-07-29T00:44:09;46.84;43.09;56.53;;
67322;Laerm;57666;51.436;5.978;2022-07-29T00:44:19;45.31;42.91;47.92;;
67322;Laerm;57666;51.436;5.978;2022-07-29T00:44:30;46.00;44.44;49.42;;
67322;Laerm;57666;51.436;5.978;2022-07-29T00:44:40;51.69;45.41;60.33;;
67322;Laerm;57666;51.436;5.978;2022-07-29T00:44:51;59.93;54.97;65.43;;
67322;Laerm;57666;51.436;5.978;2022-07-29T00:45:01;63.92;60.49;68.11;;
67322;Laerm;57666;51.436;5.978;2022-07-29T00:45:12;68.77;64.57;76.56;;
67322;Laerm;57666;51.436;5.978;2022-07-29T00:45:22;71.92;69.95;75.54;;
67322;Laerm;57666;51.436;5.978;2022-07-29T00:45:32;72.72;70.34;78.13;;
67322;Laerm;57666;51.436;5.978;2022-07-29T00:45:43;74.35;72.55;86.46;;
67322;Laerm;57666;51.436;5.978;2022-07-29T00:45:53;74.30;72.50;87.58;;
67322;Laerm;57666;51.436;5.978;2022-07-29T00:46:03;73.06;71.56;77.64;;
67322;Laerm;57666;51.436;5.978;2022-07-29T00:46:14;71.14;67.44;74.66;;
67322;Laerm;57666;51.436;5.978;2022-07-29T00:46:24;70.12;67.88;74.42;;
67322;Laerm;57666;51.436;5.978;2022-07-29T00:46:34;68.08;63.88;77.10;;
67322;Laerm;57666;51.436;5.978;2022-07-29T00:46:44;67.27;64.22;83.30;;
67322;Laerm;57666;51.436;5.978;2022-07-29T00:46:55;64.50;59.42;77.09;;
67322;Laerm;57666;51.436;5.978;2022-07-29T00:47:06;61.05;58.58;73.57;;
67322;Laerm;57666;51.436;5.978;2022-07-29T00:47:16;62.23;59.07;67.36;;
67322;Laerm;57666;51.436;5.978;2022-07-29T00:47:26;62.32;57.23;77.46;;
67322;Laerm;57666;51.436;5.978;2022-07-29T00:47:37;59.41;56.40;73.24;;
67322;Laerm;57666;51.436;5.978;2022-07-29T00:47:47;60.43;54.92;69.36;;
67322;Laerm;57666;51.436;5.978;2022-07-29T00:47:57;59.95;54.83;67.72;;
67322;Laerm;57666;51.436;5.978;2022-07-29T00:48:08;57.95;54.67;70.77;;
67322;Laerm;57666;51.436;5.978;2022-07-29T00:48:18;57.44;54.93;61.98;;
67322;Laerm;57666;51.436;5.978;2022-07-29T00:48:29;61.70;54.70;69.08;;
67322;Laerm;57666;51.436;5.978;2022-07-29T00:48:39;61.90;54.76;83.18;;
67322;Laerm;57666;51.436;5.978;2022-07-29T00:48:49;63.12;56.19;83.81;;
67322;Laerm;57666;51.436;5.978;2022-07-29T00:49:00;57.29;54.16;66.95;;
67322;Laerm;57666;51.436;5.978;2022-07-29T00:49:10;59.02;54.32;75.98;;
67322;Laerm;57666;51.436;5.978;2022-07-29T00:49:20;60.35;51.81;82.58;;
67322;Laerm;57666;51.436;5.978;2022-07-29T00:49:31;58.62;51.24;73.35;;
67322;Laerm;57666;51.436;5.978;2022-07-29T00:49:41;52.85;50.16;64.28;;
67322;Laerm;57666;51.436;5.978;2022-07-29T00:49:52;57.37;50.27;64.20;;
67322;Laerm;57666;51.436;5.978;2022-07-29T00:50:03;56.48;51.13;71.93;;
67322;Laerm;57666;51.436;5.978;2022-07-29T00:50:13;54.46;49.62;62.71;;
67322;Laerm;57666;51.436;5.978;2022-07-29T00:50:24;55.32;48.22;69.39;;
67322;Laerm;57666;51.436;5.978;2022-07-29T00:50:35;57.67;47.67;66.96;;
67322;Laerm;57666;51.436;5.978;2022-07-29T00:50:45;49.75;46.35;58.73;;
67322;Laerm;57666;51.436;5.978;2022-07-29T00:50:57;50.49;46.51;60.28;;
67322;Laerm;57666;51.436;5.978;2022-07-29T00:51:07;50.09;46.26;58.64;;
67322;Laerm;57666;51.436;5.978;2022-07-29T00:51:18;49.51;45.73;59.98;;
67322;Laerm;57666;51.436;5.978;2022-07-29T00:51:28;50.58;44.99;61.46;;
67322;Laerm;57666;51.436;5.978;2022-07-29T00:51:38;46.18;44.52;48.79;;
67322;Laerm;57666;51.436;5.978;2022-07-29T00:51:49;46.04;44.30;48.55;;
67322;Laerm;57666;51.436;5.978;2022-07-29T00:52:02;45.68;44.06;49.29;;
67322;Laerm;57666;51.436;5.978;2022-07-29T00:52:13;45.51;43.92;48.41;;
67322;Laerm;57666;51.436;5.978;2022-07-29T00:52:23;45.29;43.60;47.65;;
67322;Laerm;57666;51.436;5.978;2022-07-29T00:52:34;44.96;43.33;50.72;;
67322;Laerm;57666;51.436;5.978;2022-07-29T00:52:45;44.94;43.09;49.12;;
67322;Laerm;57666;51.436;5.978;2022-07-29T00:52:55;44.70;43.20;48.59;;
67322;Laerm;57666;51.436;5.978;2022-07-29T00:53:06;44.89;43.04;47.73;;
67322;Laerm;57666;51.436;5.978;2022-07-29T00:53:17;44.60;42.79;46.41;;
67322;Laerm;57666;51.436;5.978;2022-07-29T00:53:29;44.62;43.29;47.80;;
67322;Laerm;57666;51.436;5.978;2022-07-29T00:53:39;44.69;43.13;47.90;;
67322;Laerm;57666;51.436;5.978;2022-07-29T00:53:49;45.01;43.04;48.35;;
67322;Laerm;57666;51.436;5.978;2022-07-29T00:54:01;45.07;43.49;50.40;;
67322;Laerm;57666;51.436;5.978;2022-07-29T00:54:11;45.04;42.95;48.23;;
67322;Laerm;57666;51.436;5.978;2022-07-29T00:54:22;44.96;43.45;49.42;;
67322;Laerm;57666;51.436;5.978;2022-07-29T00:54:33;49.17;43.77;60.17;;
67322;Laerm;57666;51.436;5.978;2022-07-29T00:54:43;44.98;42.86;48.44;;
67322;Laerm;57666;51.436;5.978;2022-07-29T00:54:54;49.30;42.65;58.45;;
67322;Laerm;57666;51.436;5.978;2022-07-29T00:55:05;46.23;42.65;53.06;;
67322;Laerm;57666;51.436;5.978;2022-07-29T00:55:16;44.31;42.12;46.20;;
67322;Laerm;57666;51.436;5.978;2022-07-29T00:55:27;43.99;42.42;45.85;;
67322;Laerm;57666;51.436;5.978;2022-07-29T00:55:37;44.24;43.12;45.60;;
67322;Laerm;57666;51.436;5.978;2022-07-29T00:55:47;44.07;42.54;45.73;;
67322;Laerm;57666;51.436;5.978;2022-07-29T00:55:58;44.83;43.09;49.75;;
67322;Laerm;57666;51.436;5.978;2022-07-29T00:56:08;44.80;42.81;47.63;;
67322;Laerm;57666;51.436;5.978;2022-07-29T00:56:19;45.35;43.45;53.14;;
67322;Laerm;57666;51.436;5.978;2022-07-29T00:56:32;44.56;42.94;48.26;;
67322;Laerm;57666;51.436;5.978;2022-07-29T00:56:42;48.13;42.51;60.47;;
67322;Laerm;57666;51.436;5.978;2022-07-29T00:56:53;52.78;43.43;62.45;;
67322;Laerm;57666;51.436;5.978;2022-07-29T00:57:04;45.34;43.46;50.66;;
67322;Laerm;57666;51.436;5.978;2022-07-29T00:57:15;45.39;43.45;49.48;;
67322;Laerm;57666;51.436;5.978;2022-07-29T00:57:26;46.20;44.08;53.11;;
67322;Laerm;57666;51.436;5.978;2022-07-29T00:57:36;45.23;43.45;46.62;;
67322;Laerm;57666;51.436;5.978;2022-07-29T00:57:46;45.14;43.08;53.73;;
67322;Laerm;57666;51.436;5.978;2022-07-29T00:57:57;44.43;42.69;46.04;;
67322;Laerm;57666;51.436;5.978;2022-07-29T00:58:08;44.96;43.48;49.34;;
67322;Laerm;57666;51.436;5.978;2022-07-29T00:58:18;45.60;42.47;54.84;;
67322;Laerm;57666;51.436;5.978;2022-07-29T00:58:29;44.65;42.75;47.24;;
67322;Laerm;57666;51.436;5.978;2022-07-29T00:58:39;48.62;42.69;58.02;;
67322;Laerm;57666;51.436;5.978;2022-07-29T00:58:50;44.09;42.42;48.87;;
67322;Laerm;57666;51.436;5.978;2022-07-29T00:59:00;45.15;43.31;49.48;;
67322;Laerm;57666;51.436;5.978;2022-07-29T00:59:10;44.75;42.73;51.46;;
67322;Laerm;57666;51.436;5.978;2022-07-29T00:59:21;45.60;42.45;50.53;;
67322;Laerm;57666;51.436;5.978;2022-07-29T00:59:31;45.96;43.02;51.91;;
67322;Laerm;57666;51.436;5.978;2022-07-29T00:59:41;45.27;42.86;53.43;;
67322;Laerm;57666;51.436;5.978;2022-07-29T00:59:52;43.72;42.09;46.72;;